sensor_id;sensor_type;location;lat;lon;timestamp;P1;durP1;ratioP1;P2;durP2;ratioP2
18732;SDS011;9495;51.210;2.934;2023-08-12T00:00:43;12.07;;;7.28;;
18732;SDS011;9495;51.210;2.934;2023-08-12T00:03:11;12.10;;;6.75;;
18732;SDS011;9495;51.210;2.934;2023-08-12T00:05:42;13.27;;;6.82;;
18732;SDS011;9495;51.210;2.934;2023-08-12T00:08:10;11.02;;;7.38;;
18732;SDS011;9495;51.210;2.934;2023-08-12T00:10:39;11.98;;;6.75;;
18732;SDS011;9495;51.210;2.934;2023-08-12T00:13:07;12.50;;;7.43;;
18732;SDS011;9495;51.210;2.934;2023-08-12T00:15:36;16.27;;;8.07;;
18732;SDS011;9495;51.210;2.934;2023-08-12T00:18:04;12.43;;;7.88;;
18732;SDS011;9495;51.210;2.934;2023-08-12T00:20:33;12.82;;;8.27;;
18732;SDS011;9495;51.210;2.934;2023-08-12T00:23:05;13.10;;;7.90;;
18732;SDS011;9495;51.210;2.934;2023-08-12T00:25:34;11.65;;;7.60;;
18732;SDS011;9495;51.210;2.934;2023-08-12T00:28:02;13.52;;;7.97;;
18732;SDS011;9495;51.210;2.934;2023-08-12T00:30:31;13.73;;;7.97;;
18732;SDS011;9495;51.210;2.934;2023-08-12T00:33:00;16.25;;;7.97;;
18732;SDS011;9495;51.210;2.934;2023-08-12T00:35:29;10.23;;;7.38;;
18732;SDS011;9495;51.210;2.934;2023-08-12T00:37:57;12.00;;;7.50;;
18732;SDS011;9495;51.210;2.934;2023-08-12T00:40:27;13.38;;;7.50;;
18732;SDS011;9495;51.210;2.934;2023-08-12T00:42:56;10.10;;;7.05;;
18732;SDS011;9495;51.210;2.934;2023-08-12T00:45:25;11.93;;;7.20;;
18732;SDS011;9495;51.210;2.934;2023-08-12T00:47:53;13.10;;;7.10;;
18732;SDS011;9495;51.210;2.934;2023-08-12T00:50:22;11.07;;;7.18;;
18732;SDS011;9495;51.210;2.934;2023-08-12T00:52:51;13.23;;;7.70;;
18732;SDS011;9495;51.210;2.934;2023-08-12T00:55:20;14.82;;;7.93;;
18732;SDS011;9495;51.210;2.934;2023-08-12T00:57:50;15.02;;;8.13;;
18732;SDS011;9495;51.210;2.934;2023-08-12T01:00:18;10.55;;;7.78;;
18732;SDS011;9495;51.210;2.934;2023-08-12T01:02:48;10.82;;;8.02;;
18732;SDS011;9495;51.210;2.934;2023-08-12T01:05:17;13.30;;;8.23;;
18732;SDS011;9495;51.210;2.934;2023-08-12T01:07:46;18.73;;;9.18;;
18732;SDS011;9495;51.210;2.934;2023-08-12T01:10:15;17.60;;;8.63;;
18732;SDS011;9495;51.210;2.934;2023-08-12T01:12:45;12.52;;;8.85;;
18732;SDS011;9495;51.210;2.934;2023-08-12T01:15:20;16.85;;;8.50;;
18732;SDS011;9495;51.210;2.934;2023-08-12T01:17:50;15.50;;;9.15;;
18732;SDS011;9495;51.210;2.934;2023-08-12T01:20:21;12.50;;;8.80;;
18732;SDS011;9495;51.210;2.934;2023-08-12T01:22:52;15.60;;;9.55;;
18732;SDS011;9495;51.210;2.934;2023-08-12T01:25:26;14.40;;;8.98;;
18732;SDS011;9495;51.210;2.934;2023-08-12T01:27:54;11.75;;;8.55;;
18732;SDS011;9495;51.210;2.934;2023-08-12T01:30:23;16.30;;;8.90;;
18732;SDS011;9495;51.210;2.934;2023-08-12T01:32:53;13.50;;;9.23;;
18732;SDS011;9495;51.210;2.934;2023-08-12T01:35:26;16.00;;;9.45;;
18732;SDS011;9495;51.210;2.934;2023-08-12T01:37:58;19.48;;;10.40;;
18732;SDS011;9495;51.210;2.934;2023-08-12T01:40:31;13.68;;;9.98;;
18732;SDS011;9495;51.210;2.934;2023-08-12T01:43:00;14.30;;;9.23;;
18732;SDS011;9495;51.210;2.934;2023-08-12T01:45:30;14.35;;;10.10;;
18732;SDS011;9495;51.210;2.934;2023-08-12T01:47:59;17.48;;;9.85;;
18732;SDS011;9495;51.210;2.934;2023-08-12T01:50:28;15.95;;;9.23;;
18732;SDS011;9495;51.210;2.934;2023-08-12T01:52:57;11.80;;;8.55;;
18732;SDS011;9495;51.210;2.934;2023-08-12T01:55:25;10.68;;;8.40;;
18732;SDS011;9495;51.210;2.934;2023-08-12T01:57:55;12.10;;;8.15;;
18732;SDS011;9495;51.210;2.934;2023-08-12T02:00:24;11.68;;;7.97;;
18732;SDS011;9495;51.210;2.934;2023-08-12T02:02:53;14.70;;;8.15;;
18732;SDS011;9495;51.210;2.934;2023-08-12T02:05:22;11.32;;;7.65;;
18732;SDS011;9495;51.210;2.934;2023-08-12T02:07:50;13.45;;;7.75;;
18732;SDS011;9495;51.210;2.934;2023-08-12T02:10:19;11.77;;;7.40;;
18732;SDS011;9495;51.210;2.934;2023-08-12T02:12:47;11.23;;;7.22;;
18732;SDS011;9495;51.210;2.934;2023-08-12T02:15:17;9.93;;;7.00;;
18732;SDS011;9495;51.210;2.934;2023-08-12T02:17:45;9.55;;;7.68;;
18732;SDS011;9495;51.210;2.934;2023-08-12T02:20:17;9.38;;;7.18;;
18732;SDS011;9495;51.210;2.934;2023-08-12T02:22:46;11.57;;;7.53;;
18732;SDS011;9495;51.210;2.934;2023-08-12T02:25:14;8.60;;;6.70;;
18732;SDS011;9495;51.210;2.934;2023-08-12T02:27:43;9.93;;;6.70;;
18732;SDS011;9495;51.210;2.934;2023-08-12T02:30:12;8.52;;;6.80;;
18732;SDS011;9495;51.210;2.934;2023-08-12T02:32:42;8.80;;;5.90;;
18732;SDS011;9495;51.210;2.934;2023-08-12T02:35:10;7.35;;;5.13;;
18732;SDS011;9495;51.210;2.934;2023-08-12T02:37:39;4.60;;;4.20;;
18732;SDS011;9495;51.210;2.934;2023-08-12T02:40:08;9.48;;;4.28;;
18732;SDS011;9495;51.210;2.934;2023-08-12T02:42:38;5.40;;;4.43;;
18732;SDS011;9495;51.210;2.934;2023-08-12T02:45:07;6.43;;;4.55;;
18732;SDS011;9495;51.210;2.934;2023-08-12T02:47:35;7.07;;;5.47;;
18732;SDS011;9495;51.210;2.934;2023-08-12T02:50:06;10.75;;;5.68;;
18732;SDS011;9495;51.210;2.934;2023-08-12T02:52:35;7.70;;;5.30;;
18732;SDS011;9495;51.210;2.934;2023-08-12T02:55:04;7.28;;;4.93;;
18732;SDS011;9495;51.210;2.934;2023-08-12T02:57:33;9.07;;;4.50;;
18732;SDS011;9495;51.210;2.934;2023-08-12T03:00:01;7.22;;;4.47;;
18732;SDS011;9495;51.210;2.934;2023-08-12T03:02:32;6.68;;;4.50;;
18732;SDS011;9495;51.210;2.934;2023-08-12T03:05:00;7.95;;;4.15;;
18732;SDS011;9495;51.210;2.934;2023-08-12T03:07:31;7.80;;;4.80;;
18732;SDS011;9495;51.210;2.934;2023-08-12T03:09:59;6.63;;;4.25;;
18732;SDS011;9495;51.210;2.934;2023-08-12T03:12:28;7.80;;;3.78;;
18732;SDS011;9495;51.210;2.934;2023-08-12T03:14:56;7.15;;;4.18;;
18732;SDS011;9495;51.210;2.934;2023-08-12T03:17:25;6.88;;;4.90;;
18732;SDS011;9495;51.210;2.934;2023-08-12T03:19:53;11.35;;;4.82;;
18732;SDS011;9495;51.210;2.934;2023-08-12T03:22:22;9.95;;;4.55;;
18732;SDS011;9495;51.210;2.934;2023-08-12T03:24:52;10.60;;;5.05;;
18732;SDS011;9495;51.210;2.934;2023-08-12T03:27:20;11.65;;;4.50;;
18732;SDS011;9495;51.210;2.934;2023-08-12T03:29:49;10.55;;;4.05;;
18732;SDS011;9495;51.210;2.934;2023-08-12T03:32:18;7.53;;;3.90;;
18732;SDS011;9495;51.210;2.934;2023-08-12T03:34:47;7.80;;;3.80;;
18732;SDS011;9495;51.210;2.934;2023-08-12T03:37:16;8.32;;;3.65;;
18732;SDS011;9495;51.210;2.934;2023-08-12T03:39:44;7.00;;;3.92;;
18732;SDS011;9495;51.210;2.934;2023-08-12T03:42:14;8.68;;;3.70;;
18732;SDS011;9495;51.210;2.934;2023-08-12T03:44:43;5.32;;;3.17;;
18732;SDS011;9495;51.210;2.934;2023-08-12T03:47:11;6.25;;;3.30;;
18732;SDS011;9495;51.210;2.934;2023-08-12T03:49:40;6.38;;;2.50;;
18732;SDS011;9495;51.210;2.934;2023-08-12T03:52:09;7.93;;;2.38;;
18732;SDS011;9495;51.210;2.934;2023-08-12T03:54:37;8.95;;;2.28;;
18732;SDS011;9495;51.210;2.934;2023-08-12T03:57:06;6.63;;;2.03;;
18732;SDS011;9495;51.210;2.934;2023-08-12T03:59:37;5.72;;;2.00;;
18732;SDS011;9495;51.210;2.934;2023-08-12T04:02:05;9.25;;;2.80;;
18732;SDS011;9495;51.210;2.934;2023-08-12T04:04:34;6.70;;;2.50;;
18732;SDS011;9495;51.210;2.934;2023-08-12T04:07:02;15.45;;;2.50;;
18732;SDS011;9495;51.210;2.934;2023-08-12T04:09:31;8.45;;;2.95;;
18732;SDS011;9495;51.210;2.934;2023-08-12T04:12:00;7.82;;;2.20;;
18732;SDS011;9495;51.210;2.934;2023-08-12T04:14:28;7.18;;;2.63;;
18732;SDS011;9495;51.210;2.934;2023-08-12T04:16:58;13.57;;;2.97;;
18732;SDS011;9495;51.210;2.934;2023-08-12T04:19:26;10.32;;;2.90;;
18732;SDS011;9495;51.210;2.934;2023-08-12T04:21:55;10.82;;;2.65;;
18732;SDS011;9495;51.210;2.934;2023-08-12T04:24:23;11.23;;;2.55;;
18732;SDS011;9495;51.210;2.934;2023-08-12T04:26:52;7.53;;;2.17;;
18732;SDS011;9495;51.210;2.934;2023-08-12T04:29:20;6.25;;;2.78;;
18732;SDS011;9495;51.210;2.934;2023-08-12T04:31:49;6.18;;;2.20;;
18732;SDS011;9495;51.210;2.934;2023-08-12T04:34:20;10.57;;;2.55;;
18732;SDS011;9495;51.210;2.934;2023-08-12T04:36:48;8.95;;;2.20;;
18732;SDS011;9495;51.210;2.934;2023-08-12T04:39:17;9.18;;;2.42;;
18732;SDS011;9495;51.210;2.934;2023-08-12T04:41:45;10.13;;;2.30;;
18732;SDS011;9495;51.210;2.934;2023-08-12T04:44:14;15.88;;;3.05;;
18732;SDS011;9495;51.210;2.934;2023-08-12T04:46:43;14.35;;;2.50;;
18732;SDS011;9495;51.210;2.934;2023-08-12T04:49:11;14.30;;;2.63;;
18732;SDS011;9495;51.210;2.934;2023-08-12T04:51:41;13.90;;;2.33;;
18732;SDS011;9495;51.210;2.934;2023-08-12T04:54:10;13.95;;;2.67;;
18732;SDS011;9495;51.210;2.934;2023-08-12T04:56:38;8.82;;;2.28;;
18732;SDS011;9495;51.210;2.934;2023-08-12T04:59:07;10.77;;;2.83;;
18732;SDS011;9495;51.210;2.934;2023-08-12T05:01:37;12.85;;;3.35;;
18732;SDS011;9495;51.210;2.934;2023-08-12T05:04:19;22.05;;;3.20;;
18732;SDS011;9495;51.210;2.934;2023-08-12T05:06:49;8.10;;;3.20;;
18732;SDS011;9495;51.210;2.934;2023-08-12T05:09:18;11.88;;;3.50;;
18732;SDS011;9495;51.210;2.934;2023-08-12T05:11:47;14.43;;;4.43;;
18732;SDS011;9495;51.210;2.934;2023-08-12T05:14:15;11.10;;;4.60;;
18732;SDS011;9495;51.210;2.934;2023-08-12T05:16:44;18.95;;;5.80;;
18732;SDS011;9495;51.210;2.934;2023-08-12T05:19:12;18.05;;;6.50;;
18732;SDS011;9495;51.210;2.934;2023-08-12T05:21:41;13.73;;;7.63;;
18732;SDS011;9495;51.210;2.934;2023-08-12T05:24:11;22.48;;;8.57;;
18732;SDS011;9495;51.210;2.934;2023-08-12T05:26:39;22.48;;;9.10;;
18732;SDS011;9495;51.210;2.934;2023-08-12T05:29:08;19.05;;;9.30;;
18732;SDS011;9495;51.210;2.934;2023-08-12T05:31:36;19.92;;;9.57;;
18732;SDS011;9495;51.210;2.934;2023-08-12T05:34:05;18.70;;;9.05;;
18732;SDS011;9495;51.210;2.934;2023-08-12T05:36:35;23.10;;;9.55;;
18732;SDS011;9495;51.210;2.934;2023-08-12T05:39:03;16.98;;;8.77;;
18732;SDS011;9495;51.210;2.934;2023-08-12T05:41:34;17.40;;;8.75;;
18732;SDS011;9495;51.210;2.934;2023-08-12T05:44:02;10.77;;;5.35;;
18732;SDS011;9495;51.210;2.934;2023-08-12T05:46:31;13.43;;;5.15;;
18732;SDS011;9495;51.210;2.934;2023-08-12T05:49:00;15.98;;;4.53;;
18732;SDS011;9495;51.210;2.934;2023-08-12T05:51:29;14.77;;;4.13;;
18732;SDS011;9495;51.210;2.934;2023-08-12T05:53:57;12.95;;;3.72;;
18732;SDS011;9495;51.210;2.934;2023-08-12T05:56:26;13.38;;;3.30;;
18732;SDS011;9495;51.210;2.934;2023-08-12T05:58:56;13.57;;;3.20;;
18732;SDS011;9495;51.210;2.934;2023-08-12T06:01:24;7.78;;;2.58;;
18732;SDS011;9495;51.210;2.934;2023-08-12T06:03:53;11.15;;;2.78;;
18732;SDS011;9495;51.210;2.934;2023-08-12T06:06:22;14.18;;;2.78;;
18732;SDS011;9495;51.210;2.934;2023-08-12T06:08:50;7.35;;;2.45;;
18732;SDS011;9495;51.210;2.934;2023-08-12T06:11:19;11.93;;;3.00;;
18732;SDS011;9495;51.210;2.934;2023-08-12T06:13:47;10.23;;;2.63;;
18732;SDS011;9495;51.210;2.934;2023-08-12T06:16:17;7.18;;;2.10;;
18732;SDS011;9495;51.210;2.934;2023-08-12T06:18:46;9.15;;;2.85;;
18732;SDS011;9495;51.210;2.934;2023-08-12T06:21:14;7.80;;;2.42;;
18732;SDS011;9495;51.210;2.934;2023-08-12T06:23:43;6.70;;;2.60;;
18732;SDS011;9495;51.210;2.934;2023-08-12T06:26:11;11.35;;;2.38;;
18732;SDS011;9495;51.210;2.934;2023-08-12T06:28:40;9.45;;;2.80;;
18732;SDS011;9495;51.210;2.934;2023-08-12T06:31:08;9.60;;;3.03;;
18732;SDS011;9495;51.210;2.934;2023-08-12T06:33:38;8.73;;;2.80;;
18732;SDS011;9495;51.210;2.934;2023-08-12T06:36:07;5.75;;;2.63;;
18732;SDS011;9495;51.210;2.934;2023-08-12T06:38:35;7.45;;;2.95;;
18732;SDS011;9495;51.210;2.934;2023-08-12T06:41:03;6.32;;;3.00;;
18732;SDS011;9495;51.210;2.934;2023-08-12T06:43:32;8.30;;;3.72;;
18732;SDS011;9495;51.210;2.934;2023-08-12T06:46:01;13.23;;;4.60;;
18732;SDS011;9495;51.210;2.934;2023-08-12T06:48:30;11.57;;;4.35;;
18732;SDS011;9495;51.210;2.934;2023-08-12T06:51:00;9.77;;;4.97;;
18732;SDS011;9495;51.210;2.934;2023-08-12T06:53:33;15.30;;;6.75;;
18732;SDS011;9495;51.210;2.934;2023-08-12T06:56:02;12.63;;;6.38;;
18732;SDS011;9495;51.210;2.934;2023-08-12T06:58:30;14.80;;;7.57;;
18732;SDS011;9495;51.210;2.934;2023-08-12T07:00:59;17.38;;;9.18;;
18732;SDS011;9495;51.210;2.934;2023-08-12T07:03:28;19.08;;;9.77;;
18732;SDS011;9495;51.210;2.934;2023-08-12T07:05:56;17.92;;;10.02;;
18732;SDS011;9495;51.210;2.934;2023-08-12T07:08:26;18.58;;;10.45;;
18732;SDS011;9495;51.210;2.934;2023-08-12T07:10:54;18.67;;;10.75;;
18732;SDS011;9495;51.210;2.934;2023-08-12T07:13:23;16.58;;;9.68;;
18732;SDS011;9495;51.210;2.934;2023-08-12T07:15:52;16.50;;;9.50;;
18732;SDS011;9495;51.210;2.934;2023-08-12T07:18:20;18.17;;;10.00;;
18732;SDS011;9495;51.210;2.934;2023-08-12T07:20:50;15.52;;;10.55;;
18732;SDS011;9495;51.210;2.934;2023-08-12T07:23:18;19.27;;;9.68;;
18732;SDS011;9495;51.210;2.934;2023-08-12T07:25:51;19.80;;;9.98;;
18732;SDS011;9495;51.210;2.934;2023-08-12T07:28:21;15.18;;;10.15;;
18732;SDS011;9495;51.210;2.934;2023-08-12T07:30:52;21.30;;;10.93;;
18732;SDS011;9495;51.210;2.934;2023-08-12T07:33:23;22.25;;;10.80;;
18732;SDS011;9495;51.210;2.934;2023-08-12T07:35:52;19.73;;;9.48;;
18732;SDS011;9495;51.210;2.934;2023-08-12T07:38:20;14.20;;;7.22;;
18732;SDS011;9495;51.210;2.934;2023-08-12T07:40:48;14.98;;;7.93;;
18732;SDS011;9495;51.210;2.934;2023-08-12T07:43:18;16.73;;;7.68;;
18732;SDS011;9495;51.210;2.934;2023-08-12T07:45:50;11.48;;;5.90;;
18732;SDS011;9495;51.210;2.934;2023-08-12T07:48:34;12.90;;;7.00;;
18732;SDS011;9495;51.210;2.934;2023-08-12T07:51:06;15.57;;;6.22;;
18732;SDS011;9495;51.210;2.934;2023-08-12T07:53:39;12.45;;;5.53;;
18732;SDS011;9495;51.210;2.934;2023-08-12T07:56:12;13.65;;;5.40;;
18732;SDS011;9495;51.210;2.934;2023-08-12T07:58:46;13.70;;;5.25;;
18732;SDS011;9495;51.210;2.934;2023-08-12T08:01:19;13.00;;;5.80;;
18732;SDS011;9495;51.210;2.934;2023-08-12T08:03:52;16.80;;;6.13;;
18732;SDS011;9495;51.210;2.934;2023-08-12T08:06:25;10.35;;;6.35;;
18732;SDS011;9495;51.210;2.934;2023-08-12T08:08:58;12.15;;;7.70;;
18732;SDS011;9495;51.210;2.934;2023-08-12T08:11:32;18.38;;;8.15;;
18732;SDS011;9495;51.210;2.934;2023-08-12T08:14:09;15.50;;;8.38;;
18732;SDS011;9495;51.210;2.934;2023-08-12T08:16:44;9.88;;;6.10;;
18732;SDS011;9495;51.210;2.934;2023-08-12T08:19:20;16.25;;;6.75;;
18732;SDS011;9495;51.210;2.934;2023-08-12T08:21:57;13.00;;;6.22;;
18732;SDS011;9495;51.210;2.934;2023-08-12T08:24:34;15.75;;;6.22;;
18732;SDS011;9495;51.210;2.934;2023-08-12T08:27:08;12.20;;;5.18;;
18732;SDS011;9495;51.210;2.934;2023-08-12T08:29:46;13.75;;;5.40;;
18732;SDS011;9495;51.210;2.934;2023-08-12T08:32:21;16.13;;;5.25;;
18732;SDS011;9495;51.210;2.934;2023-08-12T08:34:57;11.70;;;4.97;;
18732;SDS011;9495;51.210;2.934;2023-08-12T08:37:31;10.77;;;3.88;;
18732;SDS011;9495;51.210;2.934;2023-08-12T08:40:08;8.50;;;4.40;;
18732;SDS011;9495;51.210;2.934;2023-08-12T08:42:41;15.32;;;4.75;;
18732;SDS011;9495;51.210;2.934;2023-08-12T08:45:18;13.35;;;3.97;;
18732;SDS011;9495;51.210;2.934;2023-08-12T08:47:55;14.35;;;4.32;;
18732;SDS011;9495;51.210;2.934;2023-08-12T08:50:30;13.88;;;4.55;;
18732;SDS011;9495;51.210;2.934;2023-08-12T08:53:06;8.93;;;4.15;;
18732;SDS011;9495;51.210;2.934;2023-08-12T08:55:39;14.75;;;4.68;;
18732;SDS011;9495;51.210;2.934;2023-08-12T08:58:12;15.98;;;5.10;;
18732;SDS011;9495;51.210;2.934;2023-08-12T09:00:49;10.98;;;4.00;;
18732;SDS011;9495;51.210;2.934;2023-08-12T09:03:18;14.02;;;4.85;;
18732;SDS011;9495;51.210;2.934;2023-08-12T09:05:48;11.60;;;4.30;;
18732;SDS011;9495;51.210;2.934;2023-08-12T09:08:17;12.65;;;4.47;;
18732;SDS011;9495;51.210;2.934;2023-08-12T09:10:46;13.90;;;5.30;;
18732;SDS011;9495;51.210;2.934;2023-08-12T09:13:14;17.05;;;4.65;;
18732;SDS011;9495;51.210;2.934;2023-08-12T09:15:45;12.93;;;4.97;;
18732;SDS011;9495;51.210;2.934;2023-08-12T09:18:14;16.65;;;4.68;;
18732;SDS011;9495;51.210;2.934;2023-08-12T09:20:43;13.13;;;4.28;;
18732;SDS011;9495;51.210;2.934;2023-08-12T09:23:12;11.98;;;4.22;;
18732;SDS011;9495;51.210;2.934;2023-08-12T09:25:43;8.93;;;3.92;;
18732;SDS011;9495;51.210;2.934;2023-08-12T09:28:12;13.38;;;4.55;;
18732;SDS011;9495;51.210;2.934;2023-08-12T09:30:41;10.95;;;4.00;;
18732;SDS011;9495;51.210;2.934;2023-08-12T09:33:10;8.38;;;3.45;;
18732;SDS011;9495;51.210;2.934;2023-08-12T09:35:40;7.90;;;3.03;;
18732;SDS011;9495;51.210;2.934;2023-08-12T09:38:11;11.95;;;3.10;;
18732;SDS011;9495;51.210;2.934;2023-08-12T09:40:40;10.52;;;2.97;;
18732;SDS011;9495;51.210;2.934;2023-08-12T09:43:10;11.23;;;3.67;;
18732;SDS011;9495;51.210;2.934;2023-08-12T09:45:39;10.25;;;3.47;;
18732;SDS011;9495;51.210;2.934;2023-08-12T09:48:08;7.70;;;3.17;;
18732;SDS011;9495;51.210;2.934;2023-08-12T09:50:39;10.93;;;3.45;;
18732;SDS011;9495;51.210;2.934;2023-08-12T09:53:08;7.57;;;3.03;;
18732;SDS011;9495;51.210;2.934;2023-08-12T09:55:37;11.27;;;2.70;;
18732;SDS011;9495;51.210;2.934;2023-08-12T09:58:08;13.63;;;3.08;;
18732;SDS011;9495;51.210;2.934;2023-08-12T10:00:38;7.28;;;2.83;;
18732;SDS011;9495;51.210;2.934;2023-08-12T10:03:09;9.30;;;3.35;;
18732;SDS011;9495;51.210;2.934;2023-08-12T10:05:42;8.82;;;2.75;;
18732;SDS011;9495;51.210;2.934;2023-08-12T10:08:11;9.60;;;3.22;;
18732;SDS011;9495;51.210;2.934;2023-08-12T10:10:42;13.05;;;3.53;;
18732;SDS011;9495;51.210;2.934;2023-08-12T10:13:16;11.45;;;3.70;;
18732;SDS011;9495;51.210;2.934;2023-08-12T10:15:44;13.55;;;3.40;;
18732;SDS011;9495;51.210;2.934;2023-08-12T10:18:13;11.07;;;3.08;;
18732;SDS011;9495;51.210;2.934;2023-08-12T10:20:44;14.75;;;3.67;;
18732;SDS011;9495;51.210;2.934;2023-08-12T10:23:14;13.95;;;4.22;;
18732;SDS011;9495;51.210;2.934;2023-08-12T10:25:44;12.93;;;3.67;;
18732;SDS011;9495;51.210;2.934;2023-08-12T10:28:14;11.80;;;3.88;;
18732;SDS011;9495;51.210;2.934;2023-08-12T10:30:46;20.30;;;4.88;;
18732;SDS011;9495;51.210;2.934;2023-08-12T10:33:15;14.10;;;3.63;;
18732;SDS011;9495;51.210;2.934;2023-08-12T10:35:47;11.98;;;4.32;;
18732;SDS011;9495;51.210;2.934;2023-08-12T10:38:17;13.18;;;4.35;;
18732;SDS011;9495;51.210;2.934;2023-08-12T10:40:46;12.05;;;4.03;;
18732;SDS011;9495;51.210;2.934;2023-08-12T10:43:14;13.90;;;3.60;;
18732;SDS011;9495;51.210;2.934;2023-08-12T10:45:44;14.02;;;4.15;;
18732;SDS011;9495;51.210;2.934;2023-08-12T10:48:16;16.95;;;3.85;;
18732;SDS011;9495;51.210;2.934;2023-08-12T10:50:49;11.57;;;4.50;;
18732;SDS011;9495;51.210;2.934;2023-08-12T10:53:25;16.63;;;4.22;;
18732;SDS011;9495;51.210;2.934;2023-08-12T10:55:58;14.07;;;4.40;;
18732;SDS011;9495;51.210;2.934;2023-08-12T10:58:28;13.43;;;3.97;;
18732;SDS011;9495;51.210;2.934;2023-08-12T11:00:58;11.68;;;4.38;;
18732;SDS011;9495;51.210;2.934;2023-08-12T11:03:31;16.77;;;4.20;;
18732;SDS011;9495;51.210;2.934;2023-08-12T11:06:05;15.13;;;3.80;;
18732;SDS011;9495;51.210;2.934;2023-08-12T11:08:34;14.80;;;4.03;;
18732;SDS011;9495;51.210;2.934;2023-08-12T11:11:03;12.90;;;3.95;;
18732;SDS011;9495;51.210;2.934;2023-08-12T11:13:49;15.18;;;4.05;;
18732;SDS011;9495;51.210;2.934;2023-08-12T11:16:21;15.63;;;4.18;;
18732;SDS011;9495;51.210;2.934;2023-08-12T11:19:00;13.45;;;4.40;;
18732;SDS011;9495;51.210;2.934;2023-08-12T11:21:30;14.07;;;4.28;;
18732;SDS011;9495;51.210;2.934;2023-08-12T11:23:59;13.82;;;3.70;;
18732;SDS011;9495;51.210;2.934;2023-08-12T11:26:28;15.38;;;4.47;;
18732;SDS011;9495;51.210;2.934;2023-08-12T11:28:58;13.50;;;3.78;;
18732;SDS011;9495;51.210;2.934;2023-08-12T11:31:27;14.23;;;4.07;;
18732;SDS011;9495;51.210;2.934;2023-08-12T11:33:56;26.25;;;4.47;;
18732;SDS011;9495;51.210;2.934;2023-08-12T11:36:24;16.52;;;4.40;;
18732;SDS011;9495;51.210;2.934;2023-08-12T11:38:54;15.63;;;4.63;;
18732;SDS011;9495;51.210;2.934;2023-08-12T11:41:24;22.90;;;4.88;;
18732;SDS011;9495;51.210;2.934;2023-08-12T11:43:54;14.63;;;3.90;;
18732;SDS011;9495;51.210;2.934;2023-08-12T11:46:23;19.00;;;4.43;;
18732;SDS011;9495;51.210;2.934;2023-08-12T11:48:53;12.65;;;3.85;;
18732;SDS011;9495;51.210;2.934;2023-08-12T11:51:21;15.05;;;3.90;;
18732;SDS011;9495;51.210;2.934;2023-08-12T11:53:50;18.73;;;4.68;;
18732;SDS011;9495;51.210;2.934;2023-08-12T11:56:20;16.00;;;4.38;;
18732;SDS011;9495;51.210;2.934;2023-08-12T11:58:51;14.80;;;4.32;;
18732;SDS011;9495;51.210;2.934;2023-08-12T12:01:20;19.75;;;4.28;;
18732;SDS011;9495;51.210;2.934;2023-08-12T12:03:50;17.23;;;4.50;;
18732;SDS011;9495;51.210;2.934;2023-08-12T12:06:27;14.70;;;4.10;;
18732;SDS011;9495;51.210;2.934;2023-08-12T12:08:59;11.30;;;3.15;;
18732;SDS011;9495;51.210;2.934;2023-08-12T12:11:33;19.42;;;4.32;;
18732;SDS011;9495;51.210;2.934;2023-08-12T12:14:01;14.13;;;4.30;;
18732;SDS011;9495;51.210;2.934;2023-08-12T12:16:37;16.20;;;4.45;;
18732;SDS011;9495;51.210;2.934;2023-08-12T12:19:12;18.45;;;4.80;;
18732;SDS011;9495;51.210;2.934;2023-08-12T12:21:44;12.15;;;3.88;;
18732;SDS011;9495;51.210;2.934;2023-08-12T12:24:14;16.58;;;3.67;;
18732;SDS011;9495;51.210;2.934;2023-08-12T12:26:44;13.55;;;3.50;;
18732;SDS011;9495;51.210;2.934;2023-08-12T12:29:13;14.07;;;4.38;;
18732;SDS011;9495;51.210;2.934;2023-08-12T12:31:42;16.65;;;4.07;;
18732;SDS011;9495;51.210;2.934;2023-08-12T12:34:11;14.13;;;4.20;;
18732;SDS011;9495;51.210;2.934;2023-08-12T12:36:41;16.48;;;3.45;;
18732;SDS011;9495;51.210;2.934;2023-08-12T12:39:09;16.33;;;4.22;;
18732;SDS011;9495;51.210;2.934;2023-08-12T12:41:38;14.77;;;3.60;;
18732;SDS011;9495;51.210;2.934;2023-08-12T12:44:08;12.40;;;3.97;;
18732;SDS011;9495;51.210;2.934;2023-08-12T12:46:36;13.18;;;2.85;;
18732;SDS011;9495;51.210;2.934;2023-08-12T12:49:05;15.95;;;3.60;;
18732;SDS011;9495;51.210;2.934;2023-08-12T12:51:34;11.18;;;3.42;;
18732;SDS011;9495;51.210;2.934;2023-08-12T12:54:03;16.20;;;3.90;;
18732;SDS011;9495;51.210;2.934;2023-08-12T12:56:31;15.73;;;4.07;;
18732;SDS011;9495;51.210;2.934;2023-08-12T12:59:00;17.98;;;4.18;;
18732;SDS011;9495;51.210;2.934;2023-08-12T13:01:30;12.20;;;3.42;;
18732;SDS011;9495;51.210;2.934;2023-08-12T13:03:58;15.23;;;4.00;;
18732;SDS011;9495;51.210;2.934;2023-08-12T13:06:26;15.27;;;3.80;;
18732;SDS011;9495;51.210;2.934;2023-08-12T13:08:55;13.95;;;3.67;;
18732;SDS011;9495;51.210;2.934;2023-08-12T13:11:23;13.95;;;3.45;;
18732;SDS011;9495;51.210;2.934;2023-08-12T13:13:53;16.25;;;4.05;;
18732;SDS011;9495;51.210;2.934;2023-08-12T13:16:22;18.10;;;3.70;;
18732;SDS011;9495;51.210;2.934;2023-08-12T13:18:51;19.88;;;4.20;;
18732;SDS011;9495;51.210;2.934;2023-08-12T13:21:20;13.60;;;3.63;;
18732;SDS011;9495;51.210;2.934;2023-08-12T13:23:48;18.25;;;4.18;;
18732;SDS011;9495;51.210;2.934;2023-08-12T13:26:17;15.35;;;3.90;;
18732;SDS011;9495;51.210;2.934;2023-08-12T13:28:45;15.95;;;4.13;;
18732;SDS011;9495;51.210;2.934;2023-08-12T13:31:14;13.20;;;3.50;;
18732;SDS011;9495;51.210;2.934;2023-08-12T13:33:43;12.95;;;3.42;;
18732;SDS011;9495;51.210;2.934;2023-08-12T13:36:13;15.93;;;4.10;;
18732;SDS011;9495;51.210;2.934;2023-08-12T13:38:41;23.83;;;4.97;;
18732;SDS011;9495;51.210;2.934;2023-08-12T13:41:10;21.83;;;4.13;;
18732;SDS011;9495;51.210;2.934;2023-08-12T13:43:38;21.58;;;7.95;;
18732;SDS011;9495;51.210;2.934;2023-08-12T13:46:06;18.13;;;4.45;;
18732;SDS011;9495;51.210;2.934;2023-08-12T13:48:35;20.65;;;4.32;;
18732;SDS011;9495;51.210;2.934;2023-08-12T13:51:04;14.07;;;3.45;;
18732;SDS011;9495;51.210;2.934;2023-08-12T13:53:34;17.13;;;4.53;;
18732;SDS011;9495;51.210;2.934;2023-08-12T13:56:02;14.13;;;3.67;;
18732;SDS011;9495;51.210;2.934;2023-08-12T13:58:31;19.52;;;4.25;;
18732;SDS011;9495;51.210;2.934;2023-08-12T14:01:00;15.18;;;4.00;;
18732;SDS011;9495;51.210;2.934;2023-08-12T14:03:28;14.02;;;4.10;;
18732;SDS011;9495;51.210;2.934;2023-08-12T14:05:57;11.52;;;3.78;;
18732;SDS011;9495;51.210;2.934;2023-08-12T14:08:26;14.32;;;3.90;;
18732;SDS011;9495;51.210;2.934;2023-08-12T14:10:55;22.05;;;4.47;;
18732;SDS011;9495;51.210;2.934;2023-08-12T14:13:24;19.02;;;4.25;;
18732;SDS011;9495;51.210;2.934;2023-08-12T14:15:53;10.57;;;2.92;;
18732;SDS011;9495;51.210;2.934;2023-08-12T14:18:22;18.27;;;4.18;;
18732;SDS011;9495;51.210;2.934;2023-08-12T14:20:50;12.52;;;3.47;;
18732;SDS011;9495;51.210;2.934;2023-08-12T14:23:19;18.70;;;3.88;;
18732;SDS011;9495;51.210;2.934;2023-08-12T14:25:47;15.52;;;4.13;;
18732;SDS011;9495;51.210;2.934;2023-08-12T14:28:17;15.00;;;4.10;;
18732;SDS011;9495;51.210;2.934;2023-08-12T14:30:45;19.95;;;4.47;;
18732;SDS011;9495;51.210;2.934;2023-08-12T14:33:14;21.20;;;4.22;;
18732;SDS011;9495;51.210;2.934;2023-08-12T14:35:43;19.20;;;4.18;;
18732;SDS011;9495;51.210;2.934;2023-08-12T14:38:11;21.77;;;4.20;;
18732;SDS011;9495;51.210;2.934;2023-08-12T14:40:40;17.73;;;3.97;;
18732;SDS011;9495;51.210;2.934;2023-08-12T14:43:09;16.58;;;4.22;;
18732;SDS011;9495;51.210;2.934;2023-08-12T14:45:38;23.95;;;3.90;;
18732;SDS011;9495;51.210;2.934;2023-08-12T14:48:07;15.15;;;3.50;;
18732;SDS011;9495;51.210;2.934;2023-08-12T14:50:37;16.25;;;3.70;;
18732;SDS011;9495;51.210;2.934;2023-08-12T14:53:06;18.88;;;3.85;;
18732;SDS011;9495;51.210;2.934;2023-08-12T14:55:34;13.15;;;3.25;;
18732;SDS011;9495;51.210;2.934;2023-08-12T14:58:03;7.78;;;2.47;;
18732;SDS011;9495;51.210;2.934;2023-08-12T15:00:31;10.05;;;2.30;;
18732;SDS011;9495;51.210;2.934;2023-08-12T15:03:02;8.77;;;2.17;;
18732;SDS011;9495;51.210;2.934;2023-08-12T15:05:31;10.00;;;2.00;;